Time;durP1;ratioP1;P1;durP2;ratioP2;P2;SDS_P1;SDS_P2;PMS_P1;PMS_P2;Temp;Humidity;BMP_temperature;BMP_pressure;BME280_temperature;BME280_humidity;BME280_pressure;Samples;Min_cycle;Max_cycle;Signal;HPM_P1;HPM_P2
2022/03/25 00:00:27;;;;;;;34.08;9.38;;;;;;;5.92;40.69;99589.72;5030484;28;20079;-57
2022/03/25 00:02:53;;;;;;;33.50;8.93;;;;;;;6.01;40.44;99611.09;5029420;28;20045;-58
2022/03/25 00:05:19;;;;;;;33.30;9.98;;;;;;;5.94;41.18;99605.19;5030193;28;20051;-56
2022/03/25 00:07:45;;;;;;;29.55;9.48;;;;;;;5.93;40.97;99606.03;5026018;28;20533;-57
2022/03/25 00:10:11;;;;;;;28.33;9.88;;;;;;;5.84;40.59;99595.84;5026241;28;20045;-59
2022/03/25 00:12:37;;;;;;;37.17;11.05;;;;;;;5.89;40.81;99604.41;5018866;28;20152;-60
2022/03/25 00:15:03;;;;;;;29.27;9.38;;;;;;;5.83;41.15;99602.75;5027564;28;20033;-60
2022/03/25 00:17:29;;;;;;;30.80;10.13;;;;;;;5.80;41.26;99607.09;5029327;28;20532;-59
2022/03/25 00:19:55;;;;;;;24.85;9.85;;;;;;;5.70;41.28;99593.50;5027906;28;20041;-59
2022/03/25 00:22:21;;;;;;;39.70;10.73;;;;;;;5.72;41.30;99593.47;5028105;28;20087;-59
2022/03/25 00:24:46;;;;;;;32.00;10.73;;;;;;;5.68;41.58;99589.25;5029605;28;20099;-60
2022/03/25 00:27:12;;;;;;;39.17;10.63;;;;;;;5.61;41.41;99583.31;5030294;28;20496;-58
2022/03/25 00:29:38;;;;;;;29.23;10.82;;;;;;;5.68;41.85;99597.84;5028192;28;20119;-59
2022/03/25 00:32:04;;;;;;;34.90;11.27;;;;;;;5.64;41.57;99596.19;5028712;28;20064;-59
2022/03/25 00:34:31;;;;;;;35.75;11.07;;;;;;;5.61;41.86;99592.78;5028372;28;20045;-59
2022/03/25 00:36:57;;;;;;;42.20;12.20;;;;;;;5.41;42.06;99575.91;5029195;28;20045;-59
2022/03/25 00:39:23;;;;;;;30.83;11.23;;;;;;;5.51;42.30;99592.06;5025335;28;20041;-58
2022/03/25 00:41:49;;;;;;;31.90;11.02;;;;;;;5.44;42.20;99603.38;5032180;28;20473;-59
2022/03/25 00:44:18;;;;;;;27.50;11.77;;;;;;;5.39;41.91;99593.09;5028457;28;20532;-59
2022/03/25 00:46:44;;;;;;;27.53;10.83;;;;;;;5.38;41.88;99595.72;5007377;28;20037;-59
2022/03/25 00:49:12;;;;;;;35.95;11.70;;;;;;;5.33;41.99;99588.06;5042976;28;20367;-57
2022/03/25 00:51:38;;;;;;;33.88;11.18;;;;;;;5.30;42.33;99587.25;5008427;28;20046;-59
2022/03/25 00:54:04;;;;;;;24.38;9.00;;;;;;;5.14;42.17;99591.75;5024109;28;20595;-59
2022/03/25 00:56:30;;;;;;;30.02;9.93;;;;;;;5.05;41.97;99591.91;5027997;28;20048;-58
2022/03/25 00:58:56;;;;;;;31.08;11.02;;;;;;;4.91;42.04;99570.63;5023968;28;20077;-60
2022/03/25 01:01:22;;;;;;;29.58;11.30;;;;;;;4.93;42.57;99571.44;5028764;28;20077;-60
2022/03/25 01:03:48;;;;;;;30.88;11.70;;;;;;;5.01;42.66;99583.38;5025171;28;20076;-60
2022/03/25 01:06:18;;;;;;;21.10;9.25;;;;;;;4.83;42.83;99567.28;5030029;28;20053;-58
2022/03/25 01:08:44;;;;;;;23.42;9.13;;;;;;;4.73;43.52;99582.00;5051247;28;20073;-60
2022/03/25 01:11:10;;;;;;;31.38;10.25;;;;;;;4.56;43.45;99576.22;5046251;28;20033;-59
2022/03/25 01:13:37;;;;;;;28.83;9.13;;;;;;;4.47;43.48;99582.31;5029852;28;20060;-60
2022/03/25 01:16:04;;;;;;;29.23;9.80;;;;;;;4.45;43.39;99588.38;5031436;28;20045;-59
2022/03/25 01:18:30;;;;;;;28.05;9.25;;;;;;;4.50;43.67;99586.59;5024866;28;20532;-57
2022/03/25 01:20:57;;;;;;;26.77;9.38;;;;;;;4.60;43.46;99580.47;5030975;28;20040;-60
2022/03/25 01:23:24;;;;;;;19.38;8.65;;;;;;;4.65;43.38;99582.13;5029359;28;20124;-58
2022/03/25 01:25:51;;;;;;;20.25;8.23;;;;;;;4.64;42.97;99576.97;5029833;28;20060;-59
2022/03/25 01:28:18;;;;;;;27.67;9.05;;;;;;;4.71;43.20;99582.91;5025964;28;20041;-59
2022/03/25 01:30:45;;;;;;;20.13;7.85;;;;;;;4.54;43.47;99581.41;5030755;28;20083;-60
2022/03/25 01:33:11;;;;;;;22.10;8.95;;;;;;;4.42;43.56;99590.97;5029884;28;20087;-58
2022/03/25 01:35:40;;;;;;;28.60;8.40;;;;;;;4.48;43.78;99594.34;5030933;28;20041;-60
2022/03/25 01:38:09;;;;;;;19.40;7.60;;;;;;;4.56;43.41;99599.38;5028532;28;20033;-60
2022/03/25 01:40:35;;;;;;;26.60;8.38;;;;;;;4.45;43.44;99585.81;5003961;28;20049;-59
2022/03/25 01:43:01;;;;;;;22.27;7.65;;;;;;;4.45;43.62;99585.81;5010240;28;20116;-60
2022/03/25 01:45:34;;;;;;;25.73;8.13;;;;;;;4.63;43.51;99603.59;5017073;28;20049;-60
2022/03/25 01:48:03;;;;;;;25.48;8.00;;;;;;;4.72;43.39;99598.31;5026200;28;20513;-60
2022/03/25 01:50:29;;;;;;;28.83;8.30;;;;;;;4.73;43.52;99597.47;5027380;28;20041;-59
2022/03/25 01:52:55;;;;;;;21.83;8.15;;;;;;;4.73;43.22;99594.88;5029034;28;20566;-59
2022/03/25 01:55:26;;;;;;;21.65;7.95;;;;;;;4.74;43.43;99604.31;5030100;28;20080;-63
2022/03/25 01:57:56;;;;;;;22.90;7.95;;;;;;;4.79;43.63;99610.28;5027993;28;20056;-59
2022/03/25 02:00:24;;;;;;;26.10;8.30;;;;;;;4.84;43.16;99621.38;5062495;28;20057;-59
2022/03/25 02:02:50;;;;;;;24.35;8.15;;;;;;;4.94;42.96;99612.66;5029371;28;20038;-59
2022/03/25 02:05:17;;;;;;;21.30;7.95;;;;;;;5.05;43.00;99609.94;5029561;28;20115;-59
2022/03/25 02:07:44;;;;;;;25.23;7.93;;;;;;;5.16;42.58;99613.22;4990490;28;20065;-60
2022/03/25 02:10:10;;;;;;;26.25;7.93;;;;;;;5.20;42.84;99606.28;5042657;28;20536;-60
2022/03/25 02:12:38;;;;;;;22.67;8.35;;;;;;;5.31;42.90;99619.88;5045817;28;20128;-61
2022/03/25 02:15:05;;;;;;;25.85;8.07;;;;;;;5.38;42.50;99614.63;5028991;28;20041;-59
2022/03/25 02:17:32;;;;;;;16.05;7.78;;;;;;;5.44;42.45;99624.81;5029187;28;20045;-60
2022/03/25 02:19:58;;;;;;;22.60;8.70;;;;;;;5.45;42.48;99617.94;5028980;28;20038;-59
2022/03/25 02:22:24;;;;;;;21.95;9.23;;;;;;;5.51;42.44;99625.59;5012662;28;20540;-60
2022/03/25 02:24:50;;;;;;;21.73;8.88;;;;;;;5.55;42.62;99616.94;5013074;28;20048;-61
2022/03/25 02:27:17;;;;;;;23.20;8.18;;;;;;;5.50;42.58;99624.75;5024165;28;20041;-59
2022/03/25 02:29:46;;;;;;;23.83;8.30;;;;;;;5.49;43.00;99622.22;5028716;28;20193;-59
2022/03/25 02:32:12;;;;;;;32.70;8.30;;;;;;;5.46;43.06;99611.94;5028827;28;20073;-59
2022/03/25 02:34:38;;;;;;;21.00;8.93;;;;;;;5.43;42.78;99620.56;5028867;28;20076;-62
2022/03/25 02:37:25;;;;;;;25.30;8.55;;;;;;;5.45;43.12;99621.38;5029658;28;20149;-60
2022/03/25 02:39:53;;;;;;;32.58;8.48;;;;;;;5.56;43.22;99626.38;4998840;28;20121;-57
2022/03/25 02:42:19;;;;;;;22.38;7.90;;;;;;;5.51;42.90;99618.72;5052355;28;20042;-58
2022/03/25 02:44:46;;;;;;;28.08;8.32;;;;;;;5.54;42.96;99610.09;5061465;28;20044;-60
2022/03/25 02:47:12;;;;;;;24.33;9.00;;;;;;;5.69;42.60;99635.66;5028372;28;20414;-59
2022/03/25 02:49:38;;;;;;;29.73;9.73;;;;;;;5.72;42.48;99633.00;5021852;28;20045;-60
2022/03/25 02:52:04;;;;;;;26.33;8.93;;;;;;;5.77;42.65;99632.94;5030316;28;20049;-61
2022/03/25 02:54:30;;;;;;;21.85;8.80;;;;;;;5.82;42.36;99637.16;5028940;28;20505;-61
2022/03/25 02:56:57;;;;;;;29.58;8.10;;;;;;;5.87;42.90;99637.97;5028386;28;20568;-58
2022/03/25 02:59:24;;;;;;;21.92;8.38;;;;;;;5.94;42.66;99646.47;5011567;28;20042;-58
2022/03/25 03:01:49;;;;;;;24.40;8.18;;;;;;;5.88;42.71;99628.50;5019137;28;20148;-58
2022/03/25 03:04:15;;;;;;;25.55;9.18;;;;;;;5.96;42.21;99647.28;5037200;28;20179;-59
2022/03/25 03:06:41;;;;;;;29.38;8.40;;;;;;;5.97;42.60;99646.41;5026734;28;20045;-58
2022/03/25 03:09:07;;;;;;;23.75;9.25;;;;;;;5.99;42.16;99648.97;5029441;28;20064;-61
2022/03/25 03:11:35;;;;;;;23.50;8.63;;;;;;;5.92;42.42;99630.13;5011020;28;20041;-61
2022/03/25 03:14:00;;;;;;;27.40;9.13;;;;;;;6.05;42.27;99644.56;5013822;28;20092;-60
2022/03/25 03:16:26;;;;;;;21.92;8.32;;;;;;;6.10;42.32;99650.50;5030443;28;20037;-58
2022/03/25 03:18:52;;;;;;;20.60;7.80;;;;;;;6.06;42.23;99642.84;5017988;28;20045;-61
2022/03/25 03:21:20;;;;;;;26.55;8.40;;;;;;;6.17;41.81;99653.81;5032972;28;20052;-60
2022/03/25 03:23:46;;;;;;;20.27;7.82;;;;;;;6.19;41.85;99650.31;5032052;28;20045;-60
2022/03/25 03:26:12;;;;;;;26.63;8.45;;;;;;;6.27;41.72;99651.06;5032413;28;20051;-60
2022/03/25 03:28:38;;;;;;;22.33;8.30;;;;;;;6.29;41.52;99659.63;5026516;28;20136;-61
2022/03/25 03:31:04;;;;;;;29.77;8.23;;;;;;;6.32;41.87;99645.81;4982925;28;20474;-61
2022/03/25 03:33:30;;;;;;;29.80;8.75;;;;;;;6.29;41.54;99638.97;5022933;28;20045;-60
2022/03/25 03:35:56;;;;;;;31.17;9.23;;;;;;;6.36;41.81;99650.03;5026596;28;20063;-61
2022/03/25 03:38:22;;;;;;;21.15;8.15;;;;;;;6.40;41.70;99649.09;5022154;28;20041;-62
2022/03/25 03:40:47;;;;;;;19.35;8.25;;;;;;;6.43;41.73;99651.66;5040336;28;20076;-60
2022/03/25 03:43:13;;;;;;;18.02;7.85;;;;;;;6.44;41.80;99642.16;5029707;28;20512;-59
2022/03/25 03:45:39;;;;;;;21.50;8.73;;;;;;;6.49;41.08;99646.34;5029397;28;20038;-61
2022/03/25 03:48:05;;;;;;;28.60;9.27;;;;;;;6.56;41.04;99647.09;4992514;28;20576;-60
2022/03/25 03:50:31;;;;;;;27.38;9.23;;;;;;;6.59;41.09;99634.97;5031792;28;20052;-59
2022/03/25 03:52:57;;;;;;;25.25;8.93;;;;;;;6.61;41.33;99643.53;5048330;28;20037;-60
2022/03/25 03:55:22;;;;;;;29.00;10.18;;;;;;;6.54;41.42;99623.84;5032448;28;20402;-61
2022/03/25 03:57:48;;;;;;;28.30;10.90;;;;;;;6.70;41.37;99642.50;4992867;28;20104;-58
2022/03/25 04:00:14;;;;;;;31.98;10.20;;;;;;;6.52;41.37;99619.63;5034115;28;20049;-60
2022/03/25 04:02:41;;;;;;;28.67;9.57;;;;;;;6.72;41.15;99640.75;5024450;28;20088;-58
2022/03/25 04:05:07;;;;;;;28.02;9.43;;;;;;;6.71;41.41;99641.63;5032427;28;20436;-62
2022/03/25 04:07:44;;;;;;;22.95;9.43;;;;;;;6.57;41.13;99616.06;5032057;28;20048;-61
2022/03/25 04:10:11;;;;;;;21.63;8.70;;;;;;;6.71;40.75;99631.28;5030474;28;20041;-59
2022/03/25 04:12:37;;;;;;;23.90;8.73;;;;;;;6.71;41.22;99632.16;5018157;28;20433;-60
2022/03/25 04:15:04;;;;;;;24.33;9.05;;;;;;;6.80;40.55;99638.88;5025326;28;20041;-60
2022/03/25 04:17:30;;;;;;;21.92;8.15;;;;;;;6.83;40.78;99646.56;5020858;28;20045;-61
2022/03/25 04:19:56;;;;;;;34.95;9.95;;;;;;;6.89;40.91;99640.41;5029979;28;20102;-61
2022/03/25 04:22:22;;;;;;;34.90;9.70;;;;;;;6.89;41.01;99637.84;5022701;28;20046;-60
2022/03/25 04:24:48;;;;;;;23.90;9.15;;;;;;;6.83;41.08;99631.06;5031277;28;20037;-62
2022/03/25 04:27:14;;;;;;;35.40;10.25;;;;;;;6.89;40.88;99643.84;5014243;28;20523;-61
2022/03/25 04:29:39;;;;;;;28.70;10.73;;;;;;;6.93;41.23;99642.06;5031596;28;20052;-58
2022/03/25 04:32:06;;;;;;;28.40;9.02;;;;;;;6.89;41.39;99640.41;5061504;28;20041;-61
2022/03/25 04:34:33;;;;;;;32.83;9.48;;;;;;;6.93;40.99;99644.63;5031632;28;20042;-61
2022/03/25 04:36:58;;;;;;;29.23;11.00;;;;;;;6.87;41.07;99637.84;5032123;28;20076;-61
2022/03/25 04:39:24;;;;;;;21.75;9.02;;;;;;;6.98;40.50;99641.09;5030198;28;20118;-60
2022/03/25 04:41:49;;;;;;;23.30;8.85;;;;;;;7.07;40.22;99643.47;5027332;28;20038;-61
2022/03/25 04:44:15;;;;;;;24.80;9.65;;;;;;;7.07;40.56;99633.13;5018627;28;20123;-60
2022/03/25 04:46:41;;;;;;;25.02;9.43;;;;;;;7.20;40.50;99644.94;5031435;28;20095;-60
2022/03/25 04:49:08;;;;;;;20.15;9.20;;;;;;;7.24;40.58;99650.88;5030798;28;20045;-59
2022/03/25 04:51:34;;;;;;;31.55;8.80;;;;;;;7.28;40.17;99651.66;5030778;28;20099;-60
2022/03/25 04:54:00;;;;;;;25.88;9.07;;;;;;;7.19;39.81;99643.22;5023180;28;20037;-58
2022/03/25 04:56:26;;;;;;;43.33;9.98;;;;;;;7.34;39.80;99651.53;5031582;28;20472;-61
2022/03/25 04:58:52;;;;;;;27.98;10.48;;;;;;;7.38;40.22;99650.59;5013621;28;20076;-58
2022/03/25 05:01:18;;;;;;;39.72;10.23;;;;;;;7.46;39.75;99654.69;5030183;28;20061;-60
2022/03/25 05:03:43;;;;;;;31.60;10.05;;;;;;;7.49;40.41;99646.88;5027948;28;20043;-59
2022/03/25 05:06:09;;;;;;;28.35;10.20;;;;;;;7.37;40.17;99616.13;5029404;28;20069;-62
2022/03/25 05:08:35;;;;;;;26.33;9.63;;;;;;;7.48;39.73;99629.66;5027488;28;20110;-61
2022/03/25 05:11:00;;;;;;;27.10;10.10;;;;;;;7.64;39.54;99656.84;5012938;28;20045;-59
2022/03/25 05:13:26;;;;;;;27.50;9.98;;;;;;;7.65;39.66;99652.53;5026182;28;20128;-60
2022/03/25 05:15:52;;;;;;;40.05;10.15;;;;;;;7.70;39.82;99657.59;5022690;28;20551;-56
2022/03/25 05:18:17;;;;;;;34.22;11.25;;;;;;;7.76;39.56;99658.31;5028870;28;20604;-61
2022/03/25 05:20:43;;;;;;;37.25;12.35;;;;;;;7.84;39.60;99663.34;5030116;28;20044;-61
2022/03/25 05:23:09;;;;;;;41.30;11.25;;;;;;;7.86;39.63;99658.94;5028657;28;20068;-54
2022/03/25 05:25:35;;;;;;;30.13;11.00;;;;;;;7.95;39.32;99659.59;5012000;28;20052;-56
2022/03/25 05:28:00;;;;;;;46.10;11.45;;;;;;;8.01;39.59;99663.75;5030131;28;20128;-53
2022/03/25 05:30:31;;;;;;;28.58;10.48;;;;;;;7.93;40.82;99653.59;5028551;28;20429;-59
2022/03/25 05:32:58;;;;;;;26.00;10.48;;;;;;;7.99;41.14;99665.53;5025090;28;20540;-46
2022/03/25 05:35:25;;;;;;;42.00;11.82;;;;;;;8.04;41.14;99668.88;5024631;28;20120;-41
2022/03/25 05:37:52;;;;;;;22.40;10.65;;;;;;;8.08;40.98;99666.16;5027871;28;20069;-43
2022/03/25 05:40:20;;;;;;;25.50;11.18;;;;;;;8.17;40.72;99672.00;5031156;28;20053;-42
2022/03/25 05:42:46;;;;;;;26.65;10.73;;;;;;;8.21;40.52;99674.50;5030376;28;20535;-41
2022/03/25 05:45:12;;;;;;;30.15;10.55;;;;;;;8.25;40.31;99663.16;5031373;28;20073;-41
2022/03/25 05:47:40;;;;;;;28.73;10.75;;;;;;;8.23;40.25;99654.56;5029518;28;20095;-52
2022/03/25 05:50:07;;;;;;;31.95;11.05;;;;;;;8.38;39.99;99666.31;5030424;28;20517;-42
2022/03/25 05:52:33;;;;;;;37.97;11.98;;;;;;;8.52;39.33;99668.56;5029330;28;20063;-41
2022/03/25 05:54:58;;;;;;;36.50;10.82;;;;;;;8.60;39.30;99669.19;5029283;28;20471;-44
2022/03/25 05:57:24;;;;;;;36.25;11.05;;;;;;;8.70;39.26;99670.66;5028455;28;20049;-42
2022/03/25 05:59:50;;;;;;;29.10;11.23;;;;;;;8.79;39.03;99673.03;5029004;28;20041;-41
2022/03/25 06:02:16;;;;;;;27.85;11.70;;;;;;;8.88;38.84;99675.34;5029969;28;20513;-41
2022/03/25 06:04:42;;;;;;;26.85;11.05;;;;;;;8.95;38.70;99676.84;5029248;28;20083;-42
2022/03/25 06:07:09;;;;;;;27.30;11.60;;;;;;;8.96;38.62;99672.53;5027537;28;20044;-41
2022/03/25 06:09:35;;;;;;;33.42;11.50;;;;;;;8.98;38.30;99673.34;5028042;28;20128;-42
2022/03/25 06:12:01;;;;;;;32.30;11.38;;;;;;;8.95;38.33;99657.88;5027229;28;20132;-42
2022/03/25 06:14:26;;;;;;;30.88;11.43;;;;;;;9.07;38.50;99676.53;5028305;28;20042;-40
2022/03/25 06:16:53;;;;;;;38.28;13.50;;;;;;;9.01;38.02;99658.53;5009115;28;20038;-41
2022/03/25 06:19:19;;;;;;;32.85;11.90;;;;;;;9.09;38.06;99677.34;5025839;28;20115;-42
2022/03/25 06:21:45;;;;;;;37.72;12.65;;;;;;;9.14;37.67;99674.63;5038497;28;20041;-43
2022/03/25 06:24:10;;;;;;;31.67;11.60;;;;;;;9.21;37.69;99678.75;5030161;28;20053;-42
2022/03/25 06:26:36;;;;;;;29.23;11.45;;;;;;;9.25;37.35;99675.16;5018024;28;20529;-40
2022/03/25 06:29:03;;;;;;;33.75;12.68;;;;;;;9.30;37.33;99683.66;5017376;28;20045;-41
2022/03/25 06:31:29;;;;;;;32.03;13.02;;;;;;;9.20;37.30;99651.09;5021988;28;20040;-42
2022/03/25 06:33:54;;;;;;;28.15;11.70;;;;;;;9.40;37.25;99676.44;4997016;28;20058;-41
2022/03/25 06:36:20;;;;;;;37.75;12.30;;;;;;;9.42;36.85;99677.25;5029151;28;20534;-41
2022/03/25 06:38:46;;;;;;;40.50;12.27;;;;;;;9.43;37.44;99684.97;5037481;28;20068;-40
2022/03/25 06:41:12;;;;;;;31.45;12.00;;;;;;;9.45;37.11;99688.38;5034427;28;20128;-41
2022/03/25 06:43:38;;;;;;;37.63;12.75;;;;;;;9.46;36.87;99677.13;5033058;28;20497;-42
2022/03/25 06:46:05;;;;;;;34.00;12.52;;;;;;;9.42;37.33;99665.09;5016589;28;20128;-42
2022/03/25 06:48:31;;;;;;;40.83;12.55;;;;;;;9.55;36.94;99684.63;5030597;28;20045;-40
2022/03/25 06:50:59;;;;;;;40.70;13.30;;;;;;;9.67;37.36;99683.41;5033782;28;20041;-40
2022/03/25 06:53:27;;;;;;;42.92;13.63;;;;;;;9.71;37.27;99687.59;5048379;28;20099;-42
2022/03/25 06:55:53;;;;;;;38.25;13.65;;;;;;;9.76;36.81;99686.56;5035329;28;20480;-41
2022/03/25 06:58:19;;;;;;;39.30;13.75;;;;;;;9.78;36.75;99689.97;5034573;28;20512;-41
2022/03/25 07:00:45;;;;;;;35.72;12.88;;;;;;;9.82;36.91;99688.13;5031985;28;20053;-42
2022/03/25 07:03:11;;;;;;;34.00;13.35;;;;;;;9.89;37.01;99691.38;5034849;28;20037;-38
2022/03/25 07:05:37;;;;;;;39.53;13.43;;;;;;;9.92;37.00;99688.69;5031703;28;20056;-39
2022/03/25 07:08:04;;;;;;;38.47;15.05;;;;;;;9.95;36.98;99692.03;5011792;28;20053;-40
2022/03/25 07:10:30;;;;;;;44.05;13.38;;;;;;;10.01;36.98;99685.78;5003212;28;20124;-40
2022/03/25 07:12:56;;;;;;;43.13;14.35;;;;;;;10.07;36.70;99699.44;5032134;28;20049;-40
2022/03/25 07:15:23;;;;;;;37.97;13.43;;;;;;;10.15;36.43;99694.81;5031702;28;20150;-41
2022/03/25 07:17:52;;;;;;;42.00;14.20;;;;;;;10.11;36.14;99664.66;5031655;28;20041;-40
2022/03/25 07:20:19;;;;;;;43.60;15.20;;;;;;;10.37;36.27;99682.00;5036766;28;20559;-40
2022/03/25 07:22:49;;;;;;;46.95;15.20;;;;;;;10.41;36.35;99682.78;5038512;28;20501;-40
2022/03/25 07:25:16;;;;;;;43.60;14.68;;;;;;;10.43;35.94;99686.16;5030649;28;20053;-40
2022/03/25 07:27:43;;;;;;;47.15;15.50;;;;;;;10.30;35.85;99664.94;5006525;28;20029;-50
2022/03/25 07:30:10;;;;;;;35.58;14.95;;;;;;;10.38;36.06;99693.25;5029748;28;20438;-51
2022/03/25 07:32:36;;;;;;;37.47;14.80;;;;;;;10.36;36.22;99687.28;5027436;28;20041;-44
2022/03/25 07:35:02;;;;;;;44.85;15.88;;;;;;;10.43;36.07;99683.56;5032147;28;20166;-44
2022/03/25 07:37:29;;;;;;;45.45;16.05;;;;;;;10.60;35.48;99684.69;5029884;28;20049;-45
2022/03/25 07:39:55;;;;;;;42.70;17.17;;;;;;;10.78;34.99;99662.38;5030935;28;20551;-46
2022/03/25 07:42:21;;;;;;;42.40;14.55;;;;;;;11.36;34.49;99681.91;5030784;28;20045;-47
2022/03/25 07:44:47;;;;;;;43.65;15.05;;;;;;;12.15;33.38;99684.06;5029518;28;20445;-44
2022/03/25 07:47:14;;;;;;;40.58;15.20;;;;;;;13.04;32.30;99694.16;5022636;28;20052;-44
2022/03/25 07:49:40;;;;;;;45.67;15.10;;;;;;;13.88;30.94;99694.66;5028599;28;20037;-44
2022/03/25 07:52:14;;;;;;;36.03;15.15;;;;;;;14.44;30.17;99691.09;5030976;28;20048;-53
2022/03/25 07:54:40;;;;;;;51.67;15.38;;;;;;;14.69;29.38;99690.69;5029846;28;20038;-47
2022/03/25 07:57:06;;;;;;;42.00;15.25;;;;;;;14.69;29.66;99699.38;5032319;28;20574;-50
2022/03/25 07:59:32;;;;;;;42.42;15.65;;;;;;;14.50;30.02;99685.50;5029159;28;20041;-54
2022/03/25 08:01:58;;;;;;;42.60;16.60;;;;;;;14.03;30.01;99684.41;5021470;28;20038;-49
2022/03/25 08:04:24;;;;;;;40.55;16.00;;;;;;;13.82;30.19;99675.78;5047152;28;20084;-46
2022/03/25 08:06:51;;;;;;;41.80;16.08;;;;;;;13.91;30.24;99693.66;5028863;28;20468;-49
2022/03/25 08:09:17;;;;;;;44.60;16.30;;;;;;;13.87;30.17;99692.94;5004818;28;20092;-50
2022/03/25 08:11:45;;;;;;;41.97;16.30;;;;;;;13.78;30.14;99689.91;5023507;28;20151;-54
2022/03/25 08:14:12;;;;;;;38.22;18.45;;;;;;;13.69;30.33;99685.13;5016182;28;20069;-52
2022/03/25 08:16:38;;;;;;;32.58;15.93;;;;;;;13.71;30.68;99685.94;5031530;28;20045;-52
2022/03/25 08:19:05;;;;;;;43.65;15.60;;;;;;;13.70;30.43;99674.63;5029362;28;20048;-50
2022/03/25 08:21:31;;;;;;;48.88;17.05;;;;;;;13.72;30.46;99675.38;5028712;28;20045;-50
2022/03/25 08:29:36;;;;;;;37.20;16.38;;;;;;;13.44;30.65;99678.47;4999878;28;20048;-58
2022/03/25 08:32:03;;;;;;;40.90;17.60;;;;;;;13.48;30.77;99680.00;5029344;28;20094;-59
2022/03/25 08:34:29;;;;;;;42.63;17.17;;;;;;;13.56;30.78;99677.88;5026689;28;20036;-58
2022/03/25 08:36:55;;;;;;;46.90;17.02;;;;;;;13.40;30.70;99671.66;5027683;28;20045;-59
2022/03/25 08:39:22;;;;;;;41.47;16.67;;;;;;;13.45;30.66;99674.09;5030287;28;20037;-59
2022/03/25 08:41:48;;;;;;;39.85;16.35;;;;;;;13.41;30.68;99681.19;5031040;28;20120;-60
2022/03/25 08:44:14;;;;;;;51.88;16.67;;;;;;;13.43;30.79;99681.13;5032712;28;20037;-57
2022/03/25 08:46:40;;;;;;;44.60;16.50;;;;;;;13.63;30.71;99674.97;5031542;28;20523;-55
2022/03/25 08:49:07;;;;;;;46.63;16.27;;;;;;;13.95;30.16;99674.28;5035720;28;20049;-61
2022/03/25 08:51:32;;;;;;;46.05;16.58;;;;;;;14.16;29.92;99668.03;5030303;28;20033;-58
2022/03/25 08:53:58;;;;;;;44.45;16.15;;;;;;;14.22;29.61;99667.72;5030961;28;20042;-59
2022/03/25 08:56:24;;;;;;;41.80;15.85;;;;;;;14.33;29.47;99670.66;5037902;28;20048;-60
2022/03/25 08:58:54;;;;;;;33.22;15.88;;;;;;;14.28;29.20;99648.28;5030845;28;20417;-60
2022/03/25 09:01:21;;;;;;;42.10;15.70;;;;;;;14.29;29.32;99669.09;5024402;28;20062;-60
2022/03/25 09:03:46;;;;;;;33.88;16.52;;;;;;;14.24;29.00;99667.63;5030608;28;20124;-61
2022/03/25 09:06:12;;;;;;;48.70;14.32;;;;;;;14.14;29.11;99672.47;5014280;28;20136;-60
2022/03/25 09:08:38;;;;;;;27.55;13.15;;;;;;;13.98;29.30;99674.97;5038298;28;20091;-62
2022/03/25 09:11:04;;;;;;;38.55;15.10;;;;;;;13.83;29.15;99669.66;5034326;28;20516;-59
2022/03/25 09:13:30;;;;;;;33.13;15.70;;;;;;;13.75;29.25;99664.81;5036538;28;20069;-60
2022/03/25 09:15:56;;;;;;;29.80;14.07;;;;;;;13.59;29.75;99663.84;5014895;28;20412;-60
2022/03/25 09:18:22;;;;;;;35.33;15.27;;;;;;;13.25;29.92;99664.53;5036542;28;20124;-60
2022/03/25 09:20:48;;;;;;;37.60;14.63;;;;;;;12.99;30.39;99643.94;5035959;28;20202;-61
2022/03/25 09:23:14;;;;;;;32.78;15.52;;;;;;;13.38;30.38;99667.44;5028859;28;20500;-60
2022/03/25 09:25:40;;;;;;;33.50;15.10;;;;;;;13.45;30.08;99667.06;5030604;28;20052;-59
2022/03/25 09:28:06;;;;;;;36.65;15.15;;;;;;;13.50;29.70;99630.31;5030081;28;20033;-59
2022/03/25 09:30:32;;;;;;;40.25;15.40;;;;;;;13.76;29.77;99650.81;5012946;28;20052;-60
2022/03/25 09:32:58;;;;;;;30.88;14.98;;;;;;;13.48;30.21;99653.03;5024215;28;20386;-53
2022/03/25 09:35:24;;;;;;;38.80;16.15;;;;;;;13.22;30.48;99656.84;5024435;28;20045;-56
2022/03/25 09:37:51;;;;;;;37.60;15.55;;;;;;;13.08;30.35;99643.53;5044370;28;20095;-53
2022/03/25 09:40:22;;;;;;;31.70;14.65;;;;;;;13.27;30.65;99659.25;5042640;28;20789;-54
2022/03/25 09:42:51;;;;;;;37.38;16.15;;;;;;;13.22;30.67;99651.63;5025526;28;20037;-55
2022/03/25 09:45:17;;;;;;;;;;;;;;;13.04;30.84;99658.47;5028734;28;20041;-51
2022/03/25 09:47:44;;;;;;;41.15;16.35;;;;;;;13.03;30.99;99659.38;5028723;28;19916;-55
2022/03/25 09:50:13;;;;;;;36.42;16.15;;;;;;;13.26;30.66;99660.16;5027973;28;20699;-52
2022/03/25 09:52:40;;;;;;;29.67;14.55;;;;;;;13.29;30.51;99649.59;5024758;28;20049;-55
2022/03/25 09:55:06;;;;;;;38.03;16.23;;;;;;;13.59;30.36;99656.00;4993033;28;20068;-64
2022/03/25 09:57:31;;;;;;;32.88;15.35;;;;;;;13.50;30.51;99649.41;5040799;28;20040;-52
2022/03/25 09:59:58;;;;;;;35.08;16.35;;;;;;;13.37;30.57;99642.22;5021673;28;20124;-49
2022/03/25 10:02:25;;;;;;;28.98;15.45;;;;;;;13.61;30.28;99646.28;5023467;28;20574;-53
2022/03/25 10:04:51;;;;;;;39.90;15.50;;;;;;;13.73;30.28;99648.34;5054102;28;20046;-50
2022/03/25 10:07:21;;;;;;;19.55;11.30;;;;;;;13.77;30.41;99643.81;5040585;28;20544;-50
2022/03/25 10:10:09;;;;;;;27.98;12.05;;;;;;;13.79;30.48;99647.19;5029493;28;20139;-50
2022/03/25 10:12:39;;;;;;;31.63;15.43;;;;;;;13.72;30.40;99641.41;5032868;28;20049;-49
2022/03/25 10:15:25;;;;;;;29.05;14.57;;;;;;;13.53;30.51;99620.56;5033424;28;20044;-50
2022/03/25 10:17:56;;;;;;;28.08;14.30;;;;;;;13.57;30.34;99642.16;5023235;28;20667;-50
2022/03/25 10:20:27;;;;;;;31.73;14.38;;;;;;;13.63;30.54;99646.22;5051326;28;20041;-49
2022/03/25 10:23:10;;;;;;;27.58;14.73;;;;;;;13.64;30.56;99643.56;5039572;28;20045;-50
2022/03/25 10:25:50;;;;;;;22.38;12.18;;;;;;;13.66;30.67;99644.31;5038445;28;20041;-47
2022/03/25 10:28:29;;;;;;;28.02;13.35;;;;;;;13.68;30.54;99631.19;5038082;28;20095;-51
2022/03/25 10:31:22;;;;;;;36.53;15.15;;;;;;;13.69;30.70;99630.28;5040448;28;20056;-51
2022/03/25 10:33:52;;;;;;;33.05;14.48;;;;;;;13.57;30.77;99624.72;5017725;28;20041;-51
2022/03/25 10:36:25;;;;;;;35.30;13.65;;;;;;;13.53;30.80;99617.09;5037187;28;20051;-50
2022/03/25 10:38:55;;;;;;;26.65;13.68;;;;;;;13.60;30.83;99628.09;5045062;28;20037;-51
2022/03/25 10:41:23;;;;;;;31.08;12.65;;;;;;;13.50;30.86;99622.47;5035345;28;20048;-54
2022/03/25 10:43:56;;;;;;;27.38;11.70;;;;;;;13.36;30.87;99624.88;5036840;28;20064;-51
2022/03/25 10:46:41;;;;;;;24.17;11.73;;;;;;;13.35;30.93;99613.56;5019394;28;20543;-52
2022/03/25 10:49:15;;;;;;;23.73;11.50;;;;;;;13.49;30.67;99615.56;5034226;28;20049;-50
2022/03/25 10:51:52;;;;;;;22.45;11.50;;;;;;;13.36;30.90;99589.16;5040558;28;20064;-51
2022/03/25 10:54:22;;;;;;;25.88;10.20;;;;;;;13.72;30.72;99617.91;5035417;28;20612;-53
2022/03/25 10:56:50;;;;;;;19.55;9.98;;;;;;;13.81;30.60;99622.72;5034307;28;20055;-53
2022/03/25 10:59:26;;;;;;;17.08;9.57;;;;;;;13.78;30.48;99616.75;5044441;28;20131;-52
2022/03/25 11:01:54;;;;;;;16.23;9.05;;;;;;;13.71;30.76;99612.78;5030695;28;20155;-53
2022/03/25 11:04:20;;;;;;;17.33;9.98;;;;;;;13.85;30.71;99607.72;5042171;28;20136;-54
2022/03/25 11:06:46;;;;;;;16.25;9.45;;;;;;;13.94;30.47;99610.72;5040244;28;20473;-51
2022/03/25 11:09:13;;;;;;;16.83;9.48;;;;;;;13.89;30.29;99606.63;5037990;28;20037;-52
2022/03/25 11:11:43;;;;;;;16.45;10.13;;;;;;;13.87;30.25;99604.09;5032329;28;20512;-53
2022/03/25 11:14:09;;;;;;;14.77;9.75;;;;;;;13.89;30.48;99599.63;5044506;28;20086;-54
2022/03/25 11:16:40;;;;;;;18.77;10.93;;;;;;;13.88;30.75;99597.94;5002124;28;20132;-51
2022/03/25 11:19:09;;;;;;;18.48;10.55;;;;;;;13.76;30.65;99595.94;5034811;28;20052;-51
2022/03/25 11:21:35;;;;;;;;;;;;;;;13.75;30.76;99599.47;5040403;28;20124;-49
2022/03/25 11:24:04;;;;;;;20.58;10.27;;;;;;;13.78;30.87;99596.69;5031428;28;20004;-52
2022/03/25 11:26:30;;;;;;;23.95;10.18;;;;;;;13.86;30.88;99580.66;5034594;28;20504;-53
2022/03/25 11:28:59;;;;;;;18.25;9.95;;;;;;;14.16;30.59;99588.72;5022925;28;20049;-53
2022/03/25 11:31:24;;;;;;;18.40;9.75;;;;;;;14.39;30.15;99593.69;5006584;28;20052;-50